sensor_id;sensor_type;location;lat;lon;timestamp;P1;durP1;ratioP1;P2;durP2;ratioP2
39950;SDS011;25629;51.444;-2.606;2022-11-04T00:01:55;6.93;;;3.72;;
39950;SDS011;25629;51.444;-2.606;2022-11-04T00:04:22;6.80;;;3.25;;
39950;SDS011;25629;51.444;-2.606;2022-11-04T00:06:49;9.85;;;3.80;;
39950;SDS011;25629;51.444;-2.606;2022-11-04T00:09:20;11.05;;;4.95;;
39950;SDS011;25629;51.444;-2.606;2022-11-04T00:11:47;10.90;;;4.68;;
39950;SDS011;25629;51.444;-2.606;2022-11-04T00:14:33;9.25;;;4.90;;
39950;SDS011;25629;51.444;-2.606;2022-11-04T00:16:59;10.18;;;4.70;;
39950;SDS011;25629;51.444;-2.606;2022-11-04T00:19:46;6.88;;;4.75;;
39950;SDS011;25629;51.444;-2.606;2022-11-04T00:22:32;8.50;;;4.30;;
39950;SDS011;25629;51.444;-2.606;2022-11-04T00:25:17;8.00;;;3.85;;
39950;SDS011;25629;51.444;-2.606;2022-11-04T00:28:35;8.57;;;3.80;;
39950;SDS011;25629;51.444;-2.606;2022-11-04T00:31:09;8.43;;;4.25;;
39950;SDS011;25629;51.444;-2.606;2022-11-04T00:33:54;10.27;;;3.85;;
39950;SDS011;25629;51.444;-2.606;2022-11-04T00:36:22;6.57;;;3.13;;
39950;SDS011;25629;51.444;-2.606;2022-11-04T00:38:49;9.95;;;3.40;;
39950;SDS011;25629;51.444;-2.606;2022-11-04T00:46:26;4.77;;;2.33;;
39950;SDS011;25629;51.444;-2.606;2022-11-04T00:48:53;6.72;;;3.15;;
39950;SDS011;25629;51.444;-2.606;2022-11-04T00:51:19;5.28;;;2.55;;
39950;SDS011;25629;51.444;-2.606;2022-11-04T00:53:45;8.55;;;3.20;;
39950;SDS011;25629;51.444;-2.606;2022-11-04T00:56:11;7.28;;;2.88;;
39950;SDS011;25629;51.444;-2.606;2022-11-04T00:58:37;7.05;;;2.80;;
39950;SDS011;25629;51.444;-2.606;2022-11-04T01:01:06;6.13;;;3.00;;
39950;SDS011;25629;51.444;-2.606;2022-11-04T01:03:36;7.47;;;2.90;;
39950;SDS011;25629;51.444;-2.606;2022-11-04T01:06:02;6.43;;;2.78;;
39950;SDS011;25629;51.444;-2.606;2022-11-04T01:08:28;7.95;;;2.13;;
39950;SDS011;25629;51.444;-2.606;2022-11-04T01:10:53;6.80;;;2.65;;
39950;SDS011;25629;51.444;-2.606;2022-11-04T01:13:19;7.82;;;2.50;;
39950;SDS011;25629;51.444;-2.606;2022-11-04T01:15:45;5.70;;;1.48;;
39950;SDS011;25629;51.444;-2.606;2022-11-04T01:18:10;6.63;;;2.08;;
39950;SDS011;25629;51.444;-2.606;2022-11-04T01:20:36;5.85;;;1.90;;
39950;SDS011;25629;51.444;-2.606;2022-11-04T01:23:02;6.43;;;2.45;;
39950;SDS011;25629;51.444;-2.606;2022-11-04T01:25:28;4.65;;;1.95;;
39950;SDS011;25629;51.444;-2.606;2022-11-04T01:27:54;6.20;;;1.92;;
39950;SDS011;25629;51.444;-2.606;2022-11-04T01:30:20;7.45;;;2.60;;
39950;SDS011;25629;51.444;-2.606;2022-11-04T01:32:46;9.23;;;2.22;;
39950;SDS011;25629;51.444;-2.606;2022-11-04T01:35:11;9.18;;;1.90;;
39950;SDS011;25629;51.444;-2.606;2022-11-04T01:37:37;7.50;;;2.63;;
39950;SDS011;25629;51.444;-2.606;2022-11-04T01:40:03;5.78;;;1.83;;
39950;SDS011;25629;51.444;-2.606;2022-11-04T01:42:29;5.10;;;2.00;;
39950;SDS011;25629;51.444;-2.606;2022-11-04T01:44:56;3.88;;;1.88;;
39950;SDS011;25629;51.444;-2.606;2022-11-04T01:49:56;8.27;;;1.90;;
39950;SDS011;25629;51.444;-2.606;2022-11-04T01:52:36;5.35;;;1.77;;
39950;SDS011;25629;51.444;-2.606;2022-11-04T01:55:13;3.63;;;2.03;;
39950;SDS011;25629;51.444;-2.606;2022-11-04T01:57:48;6.50;;;1.50;;
39950;SDS011;25629;51.444;-2.606;2022-11-04T02:00:15;3.80;;;1.33;;
39950;SDS011;25629;51.444;-2.606;2022-11-04T02:02:48;2.17;;;1.00;;
39950;SDS011;25629;51.444;-2.606;2022-11-04T02:05:23;5.18;;;1.40;;
39950;SDS011;25629;51.444;-2.606;2022-11-04T02:07:49;8.38;;;1.50;;
39950;SDS011;25629;51.444;-2.606;2022-11-04T02:10:18;4.50;;;1.52;;
39950;SDS011;25629;51.444;-2.606;2022-11-04T02:12:46;5.05;;;1.42;;
39950;SDS011;25629;51.444;-2.606;2022-11-04T02:15:16;6.57;;;1.33;;
39950;SDS011;25629;51.444;-2.606;2022-11-04T02:20:43;3.88;;;2.30;;
39950;SDS011;25629;51.444;-2.606;2022-11-04T02:23:24;5.57;;;1.90;;
39950;SDS011;25629;51.444;-2.606;2022-11-04T02:37:13;4.97;;;2.45;;
39950;SDS011;25629;51.444;-2.606;2022-11-04T02:39:49;15.70;;;3.45;;
39950;SDS011;25629;51.444;-2.606;2022-11-04T02:47:31;8.45;;;2.45;;
39950;SDS011;25629;51.444;-2.606;2022-11-04T02:55:27;6.23;;;2.50;;
39950;SDS011;25629;51.444;-2.606;2022-11-04T02:58:00;7.63;;;3.35;;
39950;SDS011;25629;51.444;-2.606;2022-11-04T03:00:30;6.35;;;3.58;;
39950;SDS011;25629;51.444;-2.606;2022-11-04T03:02:59;8.65;;;3.33;;
39950;SDS011;25629;51.444;-2.606;2022-11-04T03:05:31;11.40;;;3.80;;
39950;SDS011;25629;51.444;-2.606;2022-11-04T03:08:05;10.60;;;4.15;;
39950;SDS011;25629;51.444;-2.606;2022-11-04T03:10:42;12.70;;;3.85;;
39950;SDS011;25629;51.444;-2.606;2022-11-04T03:13:25;9.48;;;3.67;;
39950;SDS011;25629;51.444;-2.606;2022-11-04T03:15:57;11.50;;;3.80;;
39950;SDS011;25629;51.444;-2.606;2022-11-04T03:18:33;9.75;;;4.15;;
39950;SDS011;25629;51.444;-2.606;2022-11-04T03:21:11;9.05;;;3.67;;
39950;SDS011;25629;51.444;-2.606;2022-11-04T03:23:39;12.18;;;4.03;;
39950;SDS011;25629;51.444;-2.606;2022-11-04T03:26:14;9.27;;;4.10;;
39950;SDS011;25629;51.444;-2.606;2022-11-04T03:31:22;10.77;;;3.78;;
39950;SDS011;25629;51.444;-2.606;2022-11-04T03:33:58;11.95;;;4.88;;
39950;SDS011;25629;51.444;-2.606;2022-11-04T03:36:23;11.05;;;4.78;;
39950;SDS011;25629;51.444;-2.606;2022-11-04T03:38:50;16.60;;;4.25;;
39950;SDS011;25629;51.444;-2.606;2022-11-04T03:41:19;11.63;;;4.43;;
39950;SDS011;25629;51.444;-2.606;2022-11-04T03:44:02;8.75;;;4.63;;
39950;SDS011;25629;51.444;-2.606;2022-11-04T03:46:28;13.90;;;3.70;;
39950;SDS011;25629;51.444;-2.606;2022-11-04T03:48:54;12.32;;;4.80;;
39950;SDS011;25629;51.444;-2.606;2022-11-04T03:51:21;9.93;;;4.43;;
39950;SDS011;25629;51.444;-2.606;2022-11-04T03:53:47;10.40;;;4.25;;
39950;SDS011;25629;51.444;-2.606;2022-11-04T04:01:36;12.70;;;4.13;;
39950;SDS011;25629;51.444;-2.606;2022-11-04T04:06:47;9.93;;;4.45;;
39950;SDS011;25629;51.444;-2.606;2022-11-04T04:09:18;12.68;;;5.90;;
39950;SDS011;25629;51.444;-2.606;2022-11-04T04:11:59;11.50;;;5.00;;
39950;SDS011;25629;51.444;-2.606;2022-11-04T04:14:39;11.65;;;4.38;;
39950;SDS011;25629;51.444;-2.606;2022-11-04T04:17:32;13.60;;;4.32;;
39950;SDS011;25629;51.444;-2.606;2022-11-04T04:20:09;10.40;;;4.13;;
39950;SDS011;25629;51.444;-2.606;2022-11-04T04:22:51;12.85;;;4.88;;
39950;SDS011;25629;51.444;-2.606;2022-11-04T04:25:22;11.73;;;4.43;;
39950;SDS011;25629;51.444;-2.606;2022-11-04T04:28:11;11.50;;;4.93;;
39950;SDS011;25629;51.444;-2.606;2022-11-04T04:30:40;11.68;;;5.05;;
39950;SDS011;25629;51.444;-2.606;2022-11-04T04:33:08;12.93;;;4.82;;
39950;SDS011;25629;51.444;-2.606;2022-11-04T04:35:43;15.00;;;4.97;;
39950;SDS011;25629;51.444;-2.606;2022-11-04T04:41:18;11.75;;;4.93;;
39950;SDS011;25629;51.444;-2.606;2022-11-04T04:44:17;16.10;;;5.20;;
39950;SDS011;25629;51.444;-2.606;2022-11-04T04:47:08;9.88;;;4.30;;
39950;SDS011;25629;51.444;-2.606;2022-11-04T04:52:16;14.05;;;5.40;;
39950;SDS011;25629;51.444;-2.606;2022-11-04T04:54:42;11.52;;;4.85;;
39950;SDS011;25629;51.444;-2.606;2022-11-04T04:57:09;10.73;;;4.35;;
39950;SDS011;25629;51.444;-2.606;2022-11-04T04:59:34;15.35;;;5.40;;
39950;SDS011;25629;51.444;-2.606;2022-11-04T05:02:00;10.15;;;4.80;;
39950;SDS011;25629;51.444;-2.606;2022-11-04T05:04:26;9.73;;;4.68;;
39950;SDS011;25629;51.444;-2.606;2022-11-04T05:06:51;12.48;;;5.80;;
39950;SDS011;25629;51.444;-2.606;2022-11-04T05:09:17;12.65;;;5.38;;
39950;SDS011;25629;51.444;-2.606;2022-11-04T05:11:43;13.00;;;5.40;;
39950;SDS011;25629;51.444;-2.606;2022-11-04T05:14:08;9.38;;;5.20;;
39950;SDS011;25629;51.444;-2.606;2022-11-04T05:16:34;13.63;;;6.47;;
39950;SDS011;25629;51.444;-2.606;2022-11-04T05:19:00;10.68;;;5.47;;
39950;SDS011;25629;51.444;-2.606;2022-11-04T05:21:25;12.23;;;5.22;;
39950;SDS011;25629;51.444;-2.606;2022-11-04T05:23:51;13.10;;;5.85;;
39950;SDS011;25629;51.444;-2.606;2022-11-04T05:26:17;10.68;;;5.57;;
39950;SDS011;25629;51.444;-2.606;2022-11-04T05:28:43;15.45;;;5.60;;
39950;SDS011;25629;51.444;-2.606;2022-11-04T05:31:09;10.93;;;4.45;;
39950;SDS011;25629;51.444;-2.606;2022-11-04T05:33:34;10.23;;;5.53;;
39950;SDS011;25629;51.444;-2.606;2022-11-04T05:36:13;14.63;;;5.30;;
39950;SDS011;25629;51.444;-2.606;2022-11-04T05:38:40;13.05;;;6.03;;
39950;SDS011;25629;51.444;-2.606;2022-11-04T05:41:07;16.77;;;5.10;;
39950;SDS011;25629;51.444;-2.606;2022-11-04T05:43:34;11.88;;;5.20;;
39950;SDS011;25629;51.444;-2.606;2022-11-04T05:46:01;12.88;;;5.32;;
39950;SDS011;25629;51.444;-2.606;2022-11-04T05:50:53;11.20;;;4.60;;
39950;SDS011;25629;51.444;-2.606;2022-11-04T05:53:19;15.02;;;5.30;;
39950;SDS011;25629;51.444;-2.606;2022-11-04T05:55:45;12.23;;;4.85;;
39950;SDS011;25629;51.444;-2.606;2022-11-04T05:58:11;12.80;;;5.55;;
39950;SDS011;25629;51.444;-2.606;2022-11-04T06:00:36;13.93;;;4.53;;
39950;SDS011;25629;51.444;-2.606;2022-11-04T06:03:02;11.32;;;4.32;;
39950;SDS011;25629;51.444;-2.606;2022-11-04T06:05:28;8.48;;;3.85;;
39950;SDS011;25629;51.444;-2.606;2022-11-04T06:07:54;12.32;;;4.35;;
39950;SDS011;25629;51.444;-2.606;2022-11-04T06:10:21;10.15;;;4.13;;
39950;SDS011;25629;51.444;-2.606;2022-11-04T06:12:47;13.55;;;4.45;;
39950;SDS011;25629;51.444;-2.606;2022-11-04T06:15:13;13.15;;;4.03;;
39950;SDS011;25629;51.444;-2.606;2022-11-04T06:17:38;13.07;;;4.18;;
39950;SDS011;25629;51.444;-2.606;2022-11-04T06:20:04;10.93;;;3.95;;
39950;SDS011;25629;51.444;-2.606;2022-11-04T06:22:31;20.50;;;4.72;;
39950;SDS011;25629;51.444;-2.606;2022-11-04T06:24:56;11.70;;;3.55;;
39950;SDS011;25629;51.444;-2.606;2022-11-04T06:27:22;8.77;;;2.97;;
39950;SDS011;25629;51.444;-2.606;2022-11-04T06:29:48;10.13;;;2.17;;
39950;SDS011;25629;51.444;-2.606;2022-11-04T06:32:16;5.90;;;2.25;;
39950;SDS011;25629;51.444;-2.606;2022-11-04T06:34:42;8.98;;;2.42;;
39950;SDS011;25629;51.444;-2.606;2022-11-04T06:37:08;8.07;;;2.70;;
39950;SDS011;25629;51.444;-2.606;2022-11-04T06:39:35;11.13;;;3.30;;
39950;SDS011;25629;51.444;-2.606;2022-11-04T06:42:01;14.05;;;2.60;;
39950;SDS011;25629;51.444;-2.606;2022-11-04T06:44:27;14.88;;;3.15;;
39950;SDS011;25629;51.444;-2.606;2022-11-04T06:46:53;9.85;;;4.10;;
39950;SDS011;25629;51.444;-2.606;2022-11-04T06:49:19;10.05;;;2.80;;
39950;SDS011;25629;51.444;-2.606;2022-11-04T06:51:47;14.60;;;3.13;;
39950;SDS011;25629;51.444;-2.606;2022-11-04T06:54:14;6.63;;;2.53;;
39950;SDS011;25629;51.444;-2.606;2022-11-04T06:56:40;9.63;;;2.50;;
39950;SDS011;25629;51.444;-2.606;2022-11-04T06:59:06;12.63;;;2.15;;
39950;SDS011;25629;51.444;-2.606;2022-11-04T07:01:33;8.63;;;2.30;;
39950;SDS011;25629;51.444;-2.606;2022-11-04T07:04:01;10.98;;;2.47;;
39950;SDS011;25629;51.444;-2.606;2022-11-04T07:06:29;12.18;;;2.60;;
39950;SDS011;25629;51.444;-2.606;2022-11-04T07:08:55;12.50;;;2.80;;
39950;SDS011;25629;51.444;-2.606;2022-11-04T07:11:23;12.57;;;2.85;;
39950;SDS011;25629;51.444;-2.606;2022-11-04T07:13:50;10.93;;;2.63;;
39950;SDS011;25629;51.444;-2.606;2022-11-04T07:16:16;11.07;;;3.13;;
39950;SDS011;25629;51.444;-2.606;2022-11-04T07:18:42;7.97;;;2.53;;
39950;SDS011;25629;51.444;-2.606;2022-11-04T07:21:08;11.57;;;2.42;;
39950;SDS011;25629;51.444;-2.606;2022-11-04T07:26:01;13.63;;;3.20;;
39950;SDS011;25629;51.444;-2.606;2022-11-04T07:28:28;8.77;;;2.67;;
39950;SDS011;25629;51.444;-2.606;2022-11-04T07:30:57;13.18;;;2.42;;
39950;SDS011;25629;51.444;-2.606;2022-11-04T07:33:24;8.45;;;1.90;;
39950;SDS011;25629;51.444;-2.606;2022-11-04T07:35:51;11.13;;;2.30;;
39950;SDS011;25629;51.444;-2.606;2022-11-04T07:38:17;9.18;;;2.28;;
39950;SDS011;25629;51.444;-2.606;2022-11-04T07:40:47;9.25;;;2.17;;
39950;SDS011;25629;51.444;-2.606;2022-11-04T07:43:13;6.93;;;1.88;;
39950;SDS011;25629;51.444;-2.606;2022-11-04T07:45:40;8.43;;;2.72;;
39950;SDS011;25629;51.444;-2.606;2022-11-04T07:50:33;7.78;;;1.30;;
39950;SDS011;25629;51.444;-2.606;2022-11-04T07:52:59;7.00;;;1.38;;
39950;SDS011;25629;51.444;-2.606;2022-11-04T07:55:24;6.68;;;1.42;;
39950;SDS011;25629;51.444;-2.606;2022-11-04T07:57:52;7.93;;;1.67;;
39950;SDS011;25629;51.444;-2.606;2022-11-04T08:00:18;9.65;;;2.00;;
39950;SDS011;25629;51.444;-2.606;2022-11-04T08:02:44;6.55;;;1.65;;
39950;SDS011;25629;51.444;-2.606;2022-11-04T08:05:11;8.15;;;2.40;;
39950;SDS011;25629;51.444;-2.606;2022-11-04T08:07:37;6.20;;;1.42;;
39950;SDS011;25629;51.444;-2.606;2022-11-04T08:10:04;7.07;;;1.13;;
39950;SDS011;25629;51.444;-2.606;2022-11-04T08:12:30;5.10;;;1.75;;
39950;SDS011;25629;51.444;-2.606;2022-11-04T08:14:57;3.15;;;1.35;;
39950;SDS011;25629;51.444;-2.606;2022-11-04T08:17:23;4.78;;;1.20;;
39950;SDS011;25629;51.444;-2.606;2022-11-04T08:19:49;5.35;;;1.20;;
39950;SDS011;25629;51.444;-2.606;2022-11-04T08:22:15;3.60;;;1.40;;
39950;SDS011;25629;51.444;-2.606;2022-11-04T08:24:41;4.50;;;1.00;;
39950;SDS011;25629;51.444;-2.606;2022-11-04T08:27:07;6.85;;;1.15;;
39950;SDS011;25629;51.444;-2.606;2022-11-04T08:29:34;5.53;;;0.95;;
39950;SDS011;25629;51.444;-2.606;2022-11-04T08:32:01;5.50;;;0.98;;
39950;SDS011;25629;51.444;-2.606;2022-11-04T08:36:53;6.10;;;1.10;;
39950;SDS011;25629;51.444;-2.606;2022-11-04T08:39:21;5.07;;;0.95;;
39950;SDS011;25629;51.444;-2.606;2022-11-04T08:41:47;5.30;;;1.63;;
39950;SDS011;25629;51.444;-2.606;2022-11-04T08:44:14;3.58;;;0.80;;
39950;SDS011;25629;51.444;-2.606;2022-11-04T08:46:41;7.32;;;1.00;;
39950;SDS011;25629;51.444;-2.606;2022-11-04T08:49:08;11.00;;;1.23;;
39950;SDS011;25629;51.444;-2.606;2022-11-04T08:51:35;3.55;;;1.15;;
39950;SDS011;25629;51.444;-2.606;2022-11-04T08:54:03;9.50;;;1.00;;
39950;SDS011;25629;51.444;-2.606;2022-11-04T08:56:30;4.30;;;0.70;;
39950;SDS011;25629;51.444;-2.606;2022-11-04T08:58:59;7.75;;;0.82;;
39950;SDS011;25629;51.444;-2.606;2022-11-04T09:01:26;9.43;;;1.42;;
39950;SDS011;25629;51.444;-2.606;2022-11-04T09:03:53;3.05;;;0.90;;
39950;SDS011;25629;51.444;-2.606;2022-11-04T09:06:23;2.95;;;1.10;;
39950;SDS011;25629;51.444;-2.606;2022-11-04T09:08:51;7.60;;;1.10;;
39950;SDS011;25629;51.444;-2.606;2022-11-04T09:11:19;4.90;;;0.60;;
39950;SDS011;25629;51.444;-2.606;2022-11-04T09:13:45;4.88;;;0.82;;
39950;SDS011;25629;51.444;-2.606;2022-11-04T09:16:12;4.75;;;0.90;;
39950;SDS011;25629;51.444;-2.606;2022-11-04T09:18:38;4.03;;;0.82;;
39950;SDS011;25629;51.444;-2.606;2022-11-04T09:21:07;2.05;;;0.60;;
39950;SDS011;25629;51.444;-2.606;2022-11-04T09:23:34;4.25;;;1.02;;
39950;SDS011;25629;51.444;-2.606;2022-11-04T09:26:11;5.38;;;0.70;;
39950;SDS011;25629;51.444;-2.606;2022-11-04T09:28:38;3.72;;;0.60;;
39950;SDS011;25629;51.444;-2.606;2022-11-04T09:31:06;2.25;;;0.50;;
39950;SDS011;25629;51.444;-2.606;2022-11-04T09:33:36;3.58;;;0.50;;
39950;SDS011;25629;51.444;-2.606;2022-11-04T09:36:03;3.22;;;0.90;;
39950;SDS011;25629;51.444;-2.606;2022-11-04T09:40:54;3.35;;;0.50;;
39950;SDS011;25629;51.444;-2.606;2022-11-04T09:46:31;3.55;;;0.50;;
39950;SDS011;25629;51.444;-2.606;2022-11-04T09:48:59;4.43;;;0.50;;
39950;SDS011;25629;51.444;-2.606;2022-11-04T09:51:26;2.75;;;0.68;;
39950;SDS011;25629;51.444;-2.606;2022-11-04T09:54:03;2.78;;;0.40;;
39950;SDS011;25629;51.444;-2.606;2022-11-04T09:56:37;3.42;;;0.50;;
39950;SDS011;25629;51.444;-2.606;2022-11-04T09:59:08;1.45;;;0.85;;
39950;SDS011;25629;51.444;-2.606;2022-11-04T10:01:36;4.43;;;0.70;;
39950;SDS011;25629;51.444;-2.606;2022-11-04T10:09:43;2.80;;;0.30;;
39950;SDS011;25629;51.444;-2.606;2022-11-04T10:21:16;7.90;;;0.63;;
39950;SDS011;25629;51.444;-2.606;2022-11-04T10:27:02;1.48;;;0.50;;
39950;SDS011;25629;51.444;-2.606;2022-11-04T10:32:04;1.83;;;0.40;;
39950;SDS011;25629;51.444;-2.606;2022-11-04T10:37:24;4.32;;;0.50;;
39950;SDS011;25629;51.444;-2.606;2022-11-04T10:39:51;2.72;;;0.50;;
39950;SDS011;25629;51.444;-2.606;2022-11-04T10:42:24;5.75;;;0.95;;
39950;SDS011;25629;51.444;-2.606;2022-11-04T10:44:50;9.30;;;1.00;;
39950;SDS011;25629;51.444;-2.606;2022-11-04T10:52:32;5.90;;;0.70;;
39950;SDS011;25629;51.444;-2.606;2022-11-04T10:54:59;2.75;;;0.68;;
39950;SDS011;25629;51.444;-2.606;2022-11-04T10:57:25;3.47;;;0.68;;
39950;SDS011;25629;51.444;-2.606;2022-11-04T10:59:53;4.72;;;1.52;;
39950;SDS011;25629;51.444;-2.606;2022-11-04T11:02:59;5.95;;;0.75;;
39950;SDS011;25629;51.444;-2.606;2022-11-04T11:07:44;3.95;;;0.50;;
39950;SDS011;25629;51.444;-2.606;2022-11-04T11:10:16;1.90;;;0.40;;
39950;SDS011;25629;51.444;-2.606;2022-11-04T11:12:51;3.75;;;0.75;;
39950;SDS011;25629;51.444;-2.606;2022-11-04T11:20:34;3.85;;;0.40;;
39950;SDS011;25629;51.444;-2.606;2022-11-04T11:23:02;4.72;;;0.47;;
39950;SDS011;25629;51.444;-2.606;2022-11-04T11:25:33;1.88;;;0.40;;
39950;SDS011;25629;51.444;-2.606;2022-11-04T11:28:04;5.20;;;1.58;;
39950;SDS011;25629;51.444;-2.606;2022-11-04T11:30:32;3.17;;;0.90;;
39950;SDS011;25629;51.444;-2.606;2022-11-04T11:33:29;5.32;;;0.60;;
39950;SDS011;25629;51.444;-2.606;2022-11-04T11:36:08;2.17;;;0.50;;
39950;SDS011;25629;51.444;-2.606;2022-11-04T11:38:51;5.38;;;1.27;;
39950;SDS011;25629;51.444;-2.606;2022-11-04T11:41:26;5.20;;;0.55;;
39950;SDS011;25629;51.444;-2.606;2022-11-04T11:43:56;4.70;;;1.13;;
39950;SDS011;25629;51.444;-2.606;2022-11-04T11:46:31;2.40;;;0.43;;
39950;SDS011;25629;51.444;-2.606;2022-11-04T11:48:59;5.03;;;0.60;;
39950;SDS011;25629;51.444;-2.606;2022-11-04T11:51:28;3.78;;;0.55;;
39950;SDS011;25629;51.444;-2.606;2022-11-04T11:56:41;1.35;;;0.22;;
39950;SDS011;25629;51.444;-2.606;2022-11-04T12:02:00;4.90;;;0.50;;
39950;SDS011;25629;51.444;-2.606;2022-11-04T12:04:40;14.90;;;1.05;;
39950;SDS011;25629;51.444;-2.606;2022-11-04T12:20:40;2.40;;;0.50;;
39950;SDS011;25629;51.444;-2.606;2022-11-04T12:23:35;2.70;;;0.50;;
39950;SDS011;25629;51.444;-2.606;2022-11-04T12:31:30;6.43;;;1.40;;
39950;SDS011;25629;51.444;-2.606;2022-11-04T12:45:24;4.85;;;0.57;;
39950;SDS011;25629;51.444;-2.606;2022-11-04T12:47:59;10.35;;;0.82;;
39950;SDS011;25629;51.444;-2.606;2022-11-04T12:55:57;4.53;;;0.50;;
39950;SDS011;25629;51.444;-2.606;2022-11-04T13:03:49;1.75;;;0.40;;
39950;SDS011;25629;51.444;-2.606;2022-11-04T13:09:02;1.73;;;0.40;;
39950;SDS011;25629;51.444;-2.606;2022-11-04T13:11:42;5.60;;;0.70;;
39950;SDS011;25629;51.444;-2.606;2022-11-04T13:14:14;3.85;;;0.65;;
39950;SDS011;25629;51.444;-2.606;2022-11-04T13:16:58;2.85;;;1.05;;
39950;SDS011;25629;51.444;-2.606;2022-11-04T13:22:23;2.38;;;0.30;;
39950;SDS011;25629;51.444;-2.606;2022-11-04T13:24:57;3.78;;;0.30;;
39950;SDS011;25629;51.444;-2.606;2022-11-04T13:27:31;3.67;;;0.45;;
39950;SDS011;25629;51.444;-2.606;2022-11-04T13:30:04;2.25;;;0.50;;
39950;SDS011;25629;51.444;-2.606;2022-11-04T13:32:41;10.95;;;2.10;;
39950;SDS011;25629;51.444;-2.606;2022-11-04T13:35:37;2.88;;;0.50;;
39950;SDS011;25629;51.444;-2.606;2022-11-04T13:38:08;2.33;;;0.30;;
39950;SDS011;25629;51.444;-2.606;2022-11-04T13:43:40;4.22;;;0.40;;
39950;SDS011;25629;51.444;-2.606;2022-11-04T13:46:27;0.70;;;0.28;;
39950;SDS011;25629;51.444;-2.606;2022-11-04T13:48:57;2.33;;;0.60;;
39950;SDS011;25629;51.444;-2.606;2022-11-04T13:51:32;1.23;;;0.30;;
39950;SDS011;25629;51.444;-2.606;2022-11-04T13:55:21;2.15;;;0.30;;
39950;SDS011;25629;51.444;-2.606;2022-11-04T13:57:22;3.08;;;0.30;;
39950;SDS011;25629;51.444;-2.606;2022-11-04T14:16:00;3.63;;;0.30;;
39950;SDS011;25629;51.444;-2.606;2022-11-04T14:18:29;3.38;;;1.25;;
39950;SDS011;25629;51.444;-2.606;2022-11-04T14:21:06;3.20;;;1.45;;
39950;SDS011;25629;51.444;-2.606;2022-11-04T14:23:40;2.67;;;0.20;;
39950;SDS011;25629;51.444;-2.606;2022-11-04T14:26:11;3.03;;;0.52;;
39950;SDS011;25629;51.444;-2.606;2022-11-04T14:29:22;0.98;;;0.20;;
39950;SDS011;25629;51.444;-2.606;2022-11-04T14:31:49;3.05;;;0.40;;
39950;SDS011;25629;51.444;-2.606;2022-11-04T14:39:29;1.80;;;0.22;;
39950;SDS011;25629;51.444;-2.606;2022-11-04T14:42:09;1.08;;;0.10;;
39950;SDS011;25629;51.444;-2.606;2022-11-04T14:52:29;0.95;;;0.22;;
39950;SDS011;25629;51.444;-2.606;2022-11-04T14:55:02;0.68;;;0.10;;
39950;SDS011;25629;51.444;-2.606;2022-11-04T14:57:43;0.85;;;0.20;;
39950;SDS011;25629;51.444;-2.606;2022-11-04T15:02:57;4.47;;;0.25;;
39950;SDS011;25629;51.444;-2.606;2022-11-04T15:05:30;0.40;;;0.10;;
39950;SDS011;25629;51.444;-2.606;2022-11-04T15:08:01;2.83;;;0.20;;
39950;SDS011;25629;51.444;-2.606;2022-11-04T15:10:50;2.83;;;0.30;;
39950;SDS011;25629;51.444;-2.606;2022-11-04T15:13:19;2.03;;;0.25;;
39950;SDS011;25629;51.444;-2.606;2022-11-04T15:15:45;4.10;;;0.20;;
39950;SDS011;25629;51.444;-2.606;2022-11-04T15:18:15;2.80;;;0.30;;
39950;SDS011;25629;51.444;-2.606;2022-11-04T15:20:48;1.33;;;0.30;;
39950;SDS011;25629;51.444;-2.606;2022-11-04T15:23:29;3.03;;;0.30;;
39950;SDS011;25629;51.444;-2.606;2022-11-04T15:25:58;5.88;;;3.13;;
39950;SDS011;25629;51.444;-2.606;2022-11-04T15:28:26;2.30;;;0.60;;
39950;SDS011;25629;51.444;-2.606;2022-11-04T15:31:04;1.30;;;0.95;;
39950;SDS011;25629;51.444;-2.606;2022-11-04T15:33:40;2.67;;;0.57;;
39950;SDS011;25629;51.444;-2.606;2022-11-04T15:36:10;0.70;;;0.15;;
39950;SDS011;25629;51.444;-2.606;2022-11-04T15:38:49;1.27;;;0.20;;
39950;SDS011;25629;51.444;-2.606;2022-11-04T15:41:25;0.98;;;0.20;;
39950;SDS011;25629;51.444;-2.606;2022-11-04T15:44:14;0.82;;;0.20;;
39950;SDS011;25629;51.444;-2.606;2022-11-04T15:46:52;4.30;;;2.60;;
39950;SDS011;25629;51.444;-2.606;2022-11-04T15:49:32;1.83;;;0.98;;
39950;SDS011;25629;51.444;-2.606;2022-11-04T15:52:04;2.28;;;0.52;;
39950;SDS011;25629;51.444;-2.606;2022-11-04T15:54:39;2.25;;;0.45;;
39950;SDS011;25629;51.444;-2.606;2022-11-04T15:57:14;2.80;;;0.57;;
39950;SDS011;25629;51.444;-2.606;2022-11-04T15:59:48;2.97;;;0.70;;
39950;SDS011;25629;51.444;-2.606;2022-11-04T16:03:04;3.05;;;1.33;;
39950;SDS011;25629;51.444;-2.606;2022-11-04T16:07:36;4.30;;;0.60;;
39950;SDS011;25629;51.444;-2.606;2022-11-04T16:10:20;2.28;;;0.98;;
39950;SDS011;25629;51.444;-2.606;2022-11-04T16:12:47;2.28;;;0.73;;
39950;SDS011;25629;51.444;-2.606;2022-11-04T16:17:59;1.20;;;0.10;;
39950;SDS011;25629;51.444;-2.606;2022-11-04T16:20:26;4.00;;;0.10;;
39950;SDS011;25629;51.444;-2.606;2022-11-04T16:23:03;1.75;;;0.10;;
39950;SDS011;25629;51.444;-2.606;2022-11-04T16:25:32;5.00;;;1.45;;
39950;SDS011;25629;51.444;-2.606;2022-11-04T16:27:59;1.05;;;0.65;;
39950;SDS011;25629;51.444;-2.606;2022-11-04T16:30:26;0.65;;;0.43;;
39950;SDS011;25629;51.444;-2.606;2022-11-04T16:32:54;1.85;;;0.40;;
39950;SDS011;25629;51.444;-2.606;2022-11-04T16:35:34;0.77;;;0.20;;
39950;SDS011;25629;51.444;-2.606;2022-11-04T16:38:00;0.82;;;0.43;;
39950;SDS011;25629;51.444;-2.606;2022-11-04T16:40:26;1.88;;;0.70;;
39950;SDS011;25629;51.444;-2.606;2022-11-04T16:42:52;2.72;;;0.60;;
39950;SDS011;25629;51.444;-2.606;2022-11-04T16:45:31;1.00;;;0.32;;
39950;SDS011;25629;51.444;-2.606;2022-11-04T16:47:59;1.90;;;0.40;;
39950;SDS011;25629;51.444;-2.606;2022-11-04T16:50:26;1.73;;;0.50;;
39950;SDS011;25629;51.444;-2.606;2022-11-04T16:52:52;3.47;;;0.50;;
39950;SDS011;25629;51.444;-2.606;2022-11-04T16:55:18;1.00;;;0.32;;
39950;SDS011;25629;51.444;-2.606;2022-11-04T16:57:45;3.90;;;0.60;;
39950;SDS011;25629;51.444;-2.606;2022-11-04T17:00:23;2.78;;;0.85;;
39950;SDS011;25629;51.444;-2.606;2022-11-04T17:02:50;2.28;;;0.75;;
39950;SDS011;25629;51.444;-2.606;2022-11-04T17:05:16;9.38;;;1.30;;
39950;SDS011;25629;51.444;-2.606;2022-11-04T17:07:43;8.50;;;2.42;;
39950;SDS011;25629;51.444;-2.606;2022-11-04T17:12:46;4.78;;;0.50;;
39950;SDS011;25629;51.444;-2.606;2022-11-04T17:15:12;1.40;;;0.40;;
39950;SDS011;25629;51.444;-2.606;2022-11-04T17:17:39;3.53;;;0.50;;
39950;SDS011;25629;51.444;-2.606;2022-11-04T17:20:06;2.90;;;0.93;;
39950;SDS011;25629;51.444;-2.606;2022-11-04T17:22:33;2.45;;;1.20;;
39950;SDS011;25629;51.444;-2.606;2022-11-04T17:25:00;5.38;;;1.17;;
39950;SDS011;25629;51.444;-2.606;2022-11-04T17:27:26;4.13;;;1.52;;
39950;SDS011;25629;51.444;-2.606;2022-11-04T17:29:52;7.22;;;2.17;;
39950;SDS011;25629;51.444;-2.606;2022-11-04T17:32:18;7.50;;;2.05;;
39950;SDS011;25629;51.444;-2.606;2022-11-04T17:34:44;5.38;;;2.70;;
39950;SDS011;25629;51.444;-2.606;2022-11-04T17:37:13;5.28;;;1.90;;
39950;SDS011;25629;51.444;-2.606;2022-11-04T17:39:39;7.25;;;3.65;;
39950;SDS011;25629;51.444;-2.606;2022-11-04T17:42:05;4.90;;;2.08;;
39950;SDS011;25629;51.444;-2.606;2022-11-04T17:44:49;2.50;;;1.02;;
39950;SDS011;25629;51.444;-2.606;2022-11-04T17:47:15;6.22;;;3.00;;
39950;SDS011;25629;51.444;-2.606;2022-11-04T17:49:40;7.28;;;2.03;;
39950;SDS011;25629;51.444;-2.606;2022-11-04T17:52:06;9.13;;;2.40;;
39950;SDS011;25629;51.444;-2.606;2022-11-04T17:54:33;5.53;;;1.40;;
39950;SDS011;25629;51.444;-2.606;2022-11-04T17:56:59;3.47;;;1.60;;
39950;SDS011;25629;51.444;-2.606;2022-11-04T17:59:25;5.78;;;2.35;;
39950;SDS011;25629;51.444;-2.606;2022-11-04T18:01:50;4.13;;;1.63;;
39950;SDS011;25629;51.444;-2.606;2022-11-04T18:04:18;4.60;;;1.25;;
39950;SDS011;25629;51.444;-2.606;2022-11-04T18:06:45;3.53;;;1.20;;